Date,TemperatureHighF,TemperatureAvgF,TemperatureLowF,DewpointHighF,DewpointAvgF,DewpointLowF,HumidityHigh,HumidityAvg,HumidityLow,PressureMaxIn,PressureMinIn,WindSpeedMaxMPH,WindSpeedAvgMPH,GustSpeedMaxMPH,PrecipitationSumIn
2014-1-1,80.8,78.1,73.2,74.1,72.2,69.4,91,82,75,30.08,29.98,12,5,19,0.05
2014-1-2,82.2,78.0,74.6,74.3,72.2,69.6,88,82,75,30.03,29.92,11,4,18,0.10
2014-1-3,82.4,77.5,72.9,74.3,72.0,69.1,92,84,70,30.03,29.94,8,2,14,0.16
2014-1-4,82.1,78.1,74.9,74.6,72.9,71.6,92,84,74,30.07,29.96,11,4,19,0.28
2014-1-5,83.4,79.3,75.1,73.4,71.5,69.5,89,77,63,30.08,29.95,11,5,23,0.05
2014-1-6,81.6,78.0,74.3,74.9,72.7,69.2,90,84,76,30.05,29.95,9,4,21,0.08
2014-1-7,82.6,79.2,75.5,75.5,72.8,71.0,91,81,72,30.06,29.97,9,4,18,0.02
2014-1-8,82.3,78.4,73.9,73.5,71.7,69.8,89,80,71,30.10,30.00,17,5,17,0.05
2014-1-9,81.8,78.3,74.2,72.6,71.4,69.6,90,80,72,30.13,30.01,13,5,16,0.05
2014-1-10,80.8,78.5,76.3,72.9,70.4,67.9,86,76,72,30.09,30.00,9,4,19,0.02
2014-1-13,80.1,76.5,73.4,72.3,70.8,69.4,91,83,75,30.10,30.03,12,3,16,0.10
2014-1-14,78.8,74.4,68.0,71.4,68.3,61.8,90,81,62,30.10,30.01,9,3,15,0.07
2014-1-15,81.9,75.8,69.7,69.3,65.4,62.3,83,71,59,30.08,29.97,9,2,16,0.00
2014-1-16,81.6,74.9,69.0,71.0,68.6,65.9,90,81,68,30.04,29.92,9,2,20,0.00
2014-1-17,82.2,75.5,68.4,71.9,69.3,65.4,91,82,69,30.06,29.95,8,2,17,0.00
2014-1-18,83.8,77.5,71.2,74.6,71.9,68.4,92,83,69,30.09,29.98,13,3,16,0.00
2014-1-19,82.9,75.1,69.9,74.9,70.7,67.4,93,86,76,30.10,30.01,8,2,10,0.00
2014-1-27,78.3,76.6,75.3,72.0,70.9,70.1,86,83,81,30.03,29.99,4,1,10,0.00
2014-1-28,82.8,77.5,72.2,72.5,70.5,68.9,92,79,68,30.08,29.97,14,4,17,0.08
2014-1-30,80.6,78.0,76.2,72.3,70.7,69.6,81,78,75,30.06,30.01,7,4,14,0.01
2014-1-31,81.3,77.7,73.8,72.7,70.6,68.7,88,79,73,30.07,29.98,12,5,16,0.10
2014-2-1,81.9,76.9,71.7,73.8,71.5,68.3,93,84,75,30.03,29.95,13,4,18,0.29
2014-2-2,80.9,76.5,71.9,74.5,72.1,70.1,94,87,79,30.03,29.93,9,3,17,0.34
2014-2-3,82.1,77.9,72.8,74.9,71.7,69.6,90,82,74,30.02,29.94,10,4,16,0.02
2014-2-4,81.1,77.8,72.8,73.2,70.9,68.4,88,80,72,30.06,29.95,10,5,17,0.08
2014-2-5,81.0,76.8,73.6,72.7,70.3,68.5,84,80,76,30.04,29.96,11,5,16,0.01
2014-2-13,80.8,77.3,75.8,72.9,71.9,71.0,87,84,77,29.99,29.91,5,2,12,0.00
2014-2-14,76.4,75.7,75.1,71.9,71.5,71.3,88,87,86,29.98,29.92,4,2,11,0.00
2014-2-19,83.0,79.4,74.9,72.3,70.6,65.7,87,75,56,30.04,29.95,10,5,19,0.07
2014-2-20,81.8,78.5,76.2,72.6,70.9,69.2,83,78,71,30.07,29.98,11,6,18,0.03
2014-2-21,81.0,77.2,74.2,73.2,71.4,69.4,91,82,74,30.06,29.97,14,4,17,0.28
2014-2-22,80.9,76.9,73.3,73.5,70.9,69.0,91,82,73,30.06,29.96,9,4,19,0.02
2014-2-23,82.0,78.0,73.5,72.6,70.1,67.2,89,77,68,30.07,29.97,5,3,15,0.04
2014-2-24,81.9,76.9,71.1,72.1,70.1,68.0,91,80,69,30.04,29.94,4,2,15,0.01
2014-2-25,82.1,76.5,71.6,72.8,70.2,68.4,91,81,68,30.02,29.89,5,2,15,0.12
2014-2-26,82.2,75.4,67.8,71.5,68.9,64.3,92,81,67,30.00,29.86,5,2,16,0.03
2014-2-27,85.2,77.2,69.8,73.5,69.9,67.1,91,79,61,29.99,29.89,6,2,17,0.00
2014-2-28,82.7,77.7,72.8,72.7,70.6,68.8,90,79,63,30.03,29.92,5,2,16,0.00
2014-3-1,79.5,74.7,70.7,72.7,70.1,67.3,91,86,78,30.06,29.91,5,2,16,0.28
2014-3-2,81.8,75.2,67.5,72.8,69.5,65.6,94,83,72,30.02,29.92,5,2,11,0.00
2014-3-3,81.3,77.3,72.7,71.0,69.5,67.8,91,77,68,30.03,29.93,5,3,14,0.08
2014-3-4,81.4,77.3,70.1,72.0,68.9,65.0,90,76,63,30.06,29.95,5,3,17,0.13
2014-3-5,82.8,78.1,72.7,73.6,71.3,68.8,90,80,73,30.10,29.99,6,3,17,0.00
2014-3-6,76.9,76.1,75.4,70.6,70.3,69.9,85,82,81,30.05,30.03,4,2,16,0.00
2014-3-7,82.3,75.5,70.5,72.4,69.4,66.5,92,82,67,30.06,29.94,5,2,16,0.20
2014-3-8,81.4,75.7,70.3,72.7,70.3,67.9,92,84,72,30.05,29.96,5,2,14,0.00
2014-3-9,82.2,75.6,67.8,73.5,69.9,65.1,92,83,75,30.06,29.95,5,2,13,0.00
2014-3-10,82.2,77.0,70.1,73.1,70.7,67.5,93,81,71,30.03,29.92,5,2,13,0.00
2014-3-11,82.3,77.7,72.1,72.3,70.3,68.3,89,78,69,30.00,29.90,5,2,12,0.00
2014-3-12,80.0,72.9,70.8,72.2,69.3,68.0,91,89,77,29.98,29.91,2,1,7,0.00
2014-3-13,84.1,78.0,71.4,73.7,70.7,67.7,88,79,66,30.02,29.91,6,3,17,0.00
2014-3-14,82.6,76.1,67.9,73.5,69.7,64.9,90,81,70,30.04,29.94,6,2,13,0.00
2014-3-15,83.0,77.3,69.9,72.7,70.2,67.2,91,79,66,30.00,29.89,6,2,15,0.00
2014-3-16,82.7,77.6,70.5,73.8,71.1,68.1,93,81,71,30.00,29.90,5,3,15,0.08
2014-3-17,84.1,78.9,73.7,73.6,71.4,69.0,88,78,65,30.00,29.90,6,3,16,0.01
2014-3-18,85.0,79.0,72.6,73.4,70.8,68.2,87,77,63,30.06,29.94,6,3,19,0.00
2014-3-19,83.4,77.7,72.1,73.8,71.3,68.3,90,81,71,30.04,29.95,5,2,16,0.02
2014-3-20,84.5,74.5,69.2,73.0,69.2,66.1,91,84,63,30.02,29.95,5,2,14,0.00
2014-3-21,87.7,78.2,68.1,75.3,69.8,64.7,90,76,54,30.05,29.94,7,2,17,0.00
2014-3-22,87.7,78.5,69.4,75.3,70.9,66.3,91,78,57,30.08,30.00,6,2,16,0.00
2014-3-23,85.4,78.6,70.9,73.6,70.7,67.1,90,77,64,30.08,29.95,6,3,19,0.00
2014-3-24,91.6,77.6,69.4,74.3,66.9,-99.9,89,78,71,30.03,29.89,5,2,14,0.00
2014-3-25,85.4,77.8,69.7,73.9,69.8,66.0,89,77,61,30.03,29.92,6,2,16,0.00
2014-3-26,83.9,77.2,67.8,74.4,70.1,64.4,89,79,70,30.09,29.97,6,2,15,0.00
2014-3-27,83.8,79.7,75.1,73.9,71.7,70.4,88,77,68,30.14,30.02,5,4,17,0.02
2014-3-28,83.6,79.3,77.0,74.2,72.0,70.3,86,78,72,30.11,30.00,7,5,19,0.01
2014-3-29,83.2,79.4,76.6,72.9,70.5,67.6,78,74,69,30.08,29.97,6,4,18,0.00
2014-3-30,84.4,79.1,73.9,73.9,71.3,69.1,86,77,67,30.02,29.90,6,3,15,0.17
2014-3-31,84.4,77.6,69.6,73.5,70.5,66.5,91,79,68,30.02,29.93,7,3,17,0.00
2014-4-1,84.2,77.6,69.3,74.2,70.5,65.6,89,79,67,30.05,29.94,6,3,17,0.00
2014-4-2,83.7,77.7,70.8,73.6,70.8,67.0,91,80,69,30.05,29.97,6,2,13,0.02
2014-4-3,84.1,77.8,72.9,74.1,71.8,69.1,89,82,70,30.01,29.94,8,4,19,0.25
2014-4-4,81.9,77.5,73.2,72.5,71.6,70.1,91,82,72,30.04,29.94,6,5,18,0.18
2014-4-5,82.8,79.2,75.8,72.5,71.4,69.9,88,78,68,30.07,29.98,7,5,19,0.11
2014-4-6,84.3,80.1,76.7,73.0,71.5,70.1,82,75,67,30.07,29.98,7,5,19,0.00
2014-4-7,83.0,79.3,75.5,73.9,71.8,68.9,83,78,73,30.07,30.00,7,5,18,0.00
2014-4-8,84.6,80.0,74.6,73.7,71.6,68.5,88,76,67,30.09,29.99,6,4,19,0.00
2014-4-9,83.7,79.2,76.3,75.3,73.4,72.1,88,83,73,30.08,30.00,6,3,22,0.02
2014-4-10,84.7,78.8,71.4,75.1,72.1,68.6,92,80,69,30.12,30.01,5,2,14,0.00
2014-4-11,84.5,79.3,74.6,74.2,71.1,68.7,86,76,66,30.12,30.00,7,3,21,0.00
2014-4-12,83.7,78.0,70.1,71.6,68.9,65.0,84,74,63,30.10,29.95,6,3,16,0.00
2014-4-13,83.4,78.1,73.3,73.7,70.7,68.2,91,78,68,30.04,29.93,6,3,16,0.07
2014-4-14,83.0,78.3,72.4,72.2,70.8,68.6,92,78,67,29.99,29.90,5,3,14,0.01
2014-4-15,83.6,78.5,72.0,73.6,71.3,68.0,89,79,69,29.97,29.87,6,3,16,0.01
2014-4-16,83.4,77.9,73.3,74.6,72.2,70.2,92,83,74,29.99,29.92,5,2,13,0.02
2014-4-17,83.6,78.7,74.2,74.2,72.5,69.8,90,82,72,30.04,29.95,6,4,22,0.23
2014-4-18,83.9,79.4,75.8,72.9,71.7,70.5,88,78,67,30.05,29.97,7,6,22,0.06
2014-4-19,83.4,78.7,72.8,74.0,72.2,69.6,92,81,71,30.06,29.99,7,5,25,0.16
2014-4-20,78.4,77.4,76.0,72.1,71.3,70.8,84,81,79,30.05,30.01,5,4,18,0.03
2014-4-21,85.9,80.2,74.6,74.9,72.2,69.7,88,77,65,30.03,29.88,7,3,19,0.00
2014-4-22,90.6,80.8,71.5,75.2,70.9,68.4,90,73,49,29.95,29.83,8,3,16,0.00
2014-4-23,88.3,80.7,73.5,75.8,71.8,69.7,88,75,58,29.98,29.86,6,1,11,0.00
2014-4-24,85.2,79.8,72.1,76.8,73.0,68.3,89,80,72,30.01,29.92,6,2,17,0.00
2014-4-25,85.7,79.6,72.3,76.6,73.2,68.9,89,81,71,30.02,29.91,6,2,17,0.00
2014-4-26,86.1,80.0,71.7,76.5,73.6,68.6,91,81,73,30.00,29.91,7,3,16,0.00
2014-4-27,86.4,80.0,71.8,75.9,72.2,68.3,89,78,67,30.01,29.92,7,3,18,0.00
2014-4-28,86.2,79.4,71.4,75.2,71.4,67.3,88,77,64,30.01,29.90,7,3,17,0.00
2014-4-29,86.5,80.2,73.2,74.8,72.4,68.8,87,78,65,30.02,29.93,6,3,16,0.00
2014-4-30,85.3,81.5,76.6,74.3,73.2,71.9,86,76,68,30.03,29.94,6,4,14,0.00
2014-5-1,85.2,81.1,76.5,74.9,73.0,71.1,84,76,68,30.00,29.91,6,4,17,0.00
2014-5-2,87.1,81.2,75.6,76.2,73.3,71.2,87,78,66,30.02,29.93,7,3,18,0.00
2014-5-3,82.7,78.6,75.8,75.9,73.7,72.2,89,85,78,30.08,29.99,5,2,17,0.02
2014-5-4,85.8,80.9,76.6,75.0,72.8,70.8,88,77,67,30.07,29.93,6,3,15,0.00
2014-5-5,87.8,78.7,72.4,76.1,71.7,68.8,91,80,63,30.00,29.86,7,2,15,0.06
2014-5-6,87.9,79.7,73.4,76.9,72.8,70.3,90,80,66,29.96,29.88,6,2,12,0.01
2014-5-7,88.3,79.0,72.5,75.6,71.2,68.1,90,78,58,30.04,29.91,6,2,14,0.10
2014-5-8,82.5,75.0,71.3,74.3,71.5,69.2,93,89,73,30.04,29.95,8,2,17,0.13
2014-5-9,83.3,78.2,71.9,74.1,71.5,67.5,90,80,70,30.04,29.95,7,4,21,0.13
2014-5-10,76.2,72.8,68.7,71.8,69.7,66.6,95,90,83,30.05,29.90,7,3,21,2.25
2014-5-11,81.6,74.7,69.7,73.3,70.4,67.2,94,87,76,30.01,29.89,5,2,19,0.73
2014-5-12,85.2,76.4,69.7,76.1,72.5,67.9,95,88,73,30.02,29.91,5,2,17,0.09
2014-5-13,85.2,79.0,73.6,75.7,73.3,70.3,92,83,69,30.00,29.92,6,3,20,0.05
2014-5-14,85.3,80.0,75.4,75.4,73.4,71.6,89,81,66,30.02,29.94,6,4,21,0.09
2014-5-15,83.9,79.6,74.9,75.9,73.4,71.1,89,81,72,30.04,29.95,7,4,18,0.10
2014-5-16,84.3,80.9,78.3,75.5,73.6,72.0,84,79,71,30.00,29.90,6,4,15,0.00
2014-5-17,84.1,79.9,75.3,73.7,72.4,70.2,90,78,68,29.98,29.88,5,3,15,0.01
2014-5-18,85.3,79.7,71.6,75.2,71.9,67.9,89,78,69,29.98,29.89,7,3,17,0.00
2014-5-19,80.8,76.8,74.7,74.8,72.8,70.9,92,88,82,30.01,29.94,4,1,14,0.23
2014-5-20,88.1,79.7,73.7,76.3,73.7,71.2,94,83,62,30.00,29.93,4,2,16,0.21
2014-5-21,89.7,81.1,73.0,76.2,73.5,70.5,92,79,59,30.03,29.95,5,2,13,0.00
2014-5-22,85.8,80.4,74.2,75.9,73.6,70.4,90,80,70,30.06,29.97,6,3,17,0.00
2014-5-23,85.8,81.1,77.2,76.1,73.2,71.5,87,77,68,30.08,29.99,6,3,19,0.01
2014-5-24,86.0,81.4,77.0,75.0,73.4,72.1,86,77,68,30.09,29.98,6,4,17,0.03
2014-5-25,84.1,80.3,77.1,75.9,73.6,71.7,89,80,74,30.06,29.97,5,3,14,0.17
2014-5-26,84.4,80.3,74.8,76.0,73.8,71.5,90,81,74,30.08,30.01,5,3,16,0.03
2014-5-27,85.5,80.7,74.8,75.6,73.3,70.3,87,78,70,30.07,30.00,5,3,18,0.00
2014-5-28,84.4,80.1,75.1,75.3,73.4,71.3,89,80,74,30.06,29.99,5,3,16,0.00
2014-5-29,84.6,80.8,77.8,76.2,74.0,72.2,86,80,72,30.01,29.95,6,3,15,0.00
2014-5-30,85.3,80.6,74.9,75.7,73.7,71.4,89,80,72,30.02,29.96,6,3,16,0.00
2014-5-31,85.0,80.6,74.7,75.9,73.7,71.4,91,80,70,30.02,29.95,5,3,16,0.05
2014-6-1,87.5,81.4,76.4,77.0,74.6,72.2,87,80,71,30.00,29.91,8,3,19,0.00
2014-6-2,90.1,82.5,74.7,77.4,74.2,70.9,89,77,59,29.97,29.87,6,2,16,0.00
2014-6-3,90.3,81.4,73.7,75.5,72.5,69.8,90,75,57,29.97,29.88,5,2,15,0.00
2014-6-4,89.1,81.4,74.8,77.5,73.5,69.3,86,77,63,29.98,29.89,6,2,16,0.00
2014-6-5,86.9,81.5,77.4,76.3,74.4,72.3,89,79,69,29.99,29.92,6,4,16,0.12
2014-6-6,86.5,81.6,78.8,76.3,74.5,72.8,83,79,71,30.00,29.92,6,4,18,0.02
2014-6-7,86.2,82.1,77.4,76.1,74.2,71.8,85,77,70,29.99,29.92,6,4,18,0.02
2014-6-12,86.3,82.0,76.3,76.3,74.6,72.5,89,78,71,30.07,30.00,5,3,16,0.00
2014-6-13,86.1,81.3,76.8,76.4,74.4,72.3,87,80,70,30.06,30.00,6,3,16,0.07
2014-6-14,86.1,82.1,77.3,76.8,75.0,73.1,87,79,69,30.06,29.97,5,4,17,0.00
2014-6-15,86.8,83.5,79.8,78.5,76.5,74.9,87,80,73,30.06,29.99,5,4,18,0.00
2014-6-16,86.9,82.7,78.6,77.2,75.8,74.1,86,80,70,30.07,30.00,5,3,15,0.00
2014-6-17,86.0,81.7,76.2,77.3,75.2,72.4,88,81,74,30.07,30.00,5,3,16,0.01
2014-6-18,85.3,80.7,76.3,76.2,74.6,72.0,90,82,74,30.07,29.98,5,2,16,0.06
2014-6-19,87.1,82.2,77.2,77.7,75.3,73.1,88,80,69,30.08,30.00,6,3,14,0.00
2014-6-20,86.5,81.6,77.8,79.6,77.1,74.3,92,86,78,30.05,29.99,6,3,17,0.07
2014-6-21,87.9,82.9,79.6,79.6,77.7,76.0,92,85,76,30.04,29.96,6,3,18,0.03
2014-6-22,87.5,83.1,80.0,78.0,76.3,74.6,88,80,70,30.05,29.97,6,3,15,0.06
2014-6-23,88.3,82.5,78.2,77.7,75.7,73.9,89,80,69,30.09,30.00,7,3,21,0.01
2014-6-24,87.0,82.6,78.6,77.9,75.9,73.7,89,80,72,30.11,30.04,6,3,17,0.01
2014-6-25,86.6,82.8,77.9,76.9,75.0,73.3,86,78,69,30.10,30.02,6,3,14,0.00
2014-6-26,86.8,83.4,79.1,78.7,77.1,75.6,89,82,73,30.07,29.97,5,3,16,0.00
2014-6-27,87.7,83.7,80.9,78.1,76.6,75.3,86,80,72,30.07,29.98,5,3,14,0.02
2014-6-28,87.4,83.4,79.0,77.5,75.5,73.1,85,77,70,30.11,30.03,6,4,16,0.00
2014-6-30,87.2,82.3,79.1,77.9,76.1,74.6,87,82,74,30.05,29.97,6,3,18,0.02
2014-7-1,83.0,78.8,76.4,77.3,74.7,72.9,90,87,83,30.01,29.98,3,1,10,0.00
2014-7-3,86.5,81.9,77.4,77.5,74.5,72.2,86,79,66,30.11,30.02,7,4,21,0.14
2014-7-4,87.2,83.4,80.0,77.2,75.1,72.8,82,76,69,30.13,30.06,6,4,17,0.01
2014-7-5,86.4,82.8,80.2,77.9,75.1,72.5,86,78,73,30.08,30.00,6,5,17,0.02
2014-7-6,88.0,81.7,75.0,78.2,75.7,72.5,93,83,71,30.06,29.99,7,4,22,0.36
2014-7-7,88.2,83.5,80.4,77.8,75.9,74.6,84,78,68,30.12,30.04,6,4,15,0.00
2014-7-8,86.7,83.3,79.2,77.1,75.5,74.1,85,78,71,30.14,30.06,5,4,15,0.00
2014-7-9,81.7,78.9,76.1,74.9,73.6,72.3,89,84,78,30.09,30.05,5,2,16,0.06
2014-7-29,85.5,80.8,75.9,77.9,74.6,72.1,90,82,72,30.05,29.97,5,2,16,0.54
2014-7-30,87.0,81.5,74.8,78.1,74.9,71.3,90,81,73,30.05,29.96,6,2,15,0.00
2014-7-31,87.5,80.6,74.3,79.2,75.3,71.5,91,84,73,30.01,29.93,7,2,17,0.29
2014-8-1,88.4,82.9,76.7,78.8,76.1,73.4,91,80,70,30.00,29.91,6,3,17,0.00
2014-8-2,82.4,79.0,73.5,76.3,74.6,71.4,94,87,76,29.98,29.91,8,5,27,1.38
2014-8-7,87.4,83.6,79.9,78.0,76.5,75.3,87,80,72,30.05,29.97,5,3,14,0.00
2014-8-8,87.1,82.1,76.6,78.3,76.1,72.4,93,82,75,30.07,30.00,9,4,24,0.26
2014-8-9,87.9,82.5,76.8,78.0,76.0,72.1,92,81,69,30.07,29.97,5,3,16,0.22
2014-8-10,87.0,81.5,76.7,77.1,74.7,72.8,88,80,72,30.04,29.99,5,2,14,0.00
2014-8-11,86.6,81.0,76.9,80.3,77.1,73.4,93,88,81,30.04,29.96,5,2,18,0.48
2014-8-12,87.3,82.9,78.5,79.5,77.6,75.3,90,84,76,30.05,29.98,6,3,18,0.01
2014-8-13,87.5,83.7,80.0,78.9,76.7,74.7,85,80,74,30.08,29.99,5,4,16,0.00
2014-8-14,87.4,84.4,81.6,78.0,76.5,75.3,83,77,72,30.06,29.98,5,4,15,0.00
2014-8-15,87.4,83.7,79.6,77.1,76.1,74.3,87,78,69,30.06,29.98,6,4,15,0.00
2014-8-16,82.8,80.9,75.8,78.9,77.2,73.0,93,89,82,30.07,29.99,6,4,23,1.29
2014-8-17,87.3,83.8,80.6,80.3,78.2,77.1,90,84,77,30.05,29.98,5,4,15,0.00
2014-9-6,87.4,81.7,78.0,79.1,76.7,72.9,92,85,75,30.00,29.92,5,2,14,0.24
2014-9-7,83.0,78.2,72.4,77.8,74.6,69.6,94,89,81,30.02,29.93,6,2,21,0.39
2014-9-8,87.2,80.8,75.3,79.2,76.1,73.5,95,86,76,30.06,29.96,5,2,16,0.00
2014-9-9,87.4,82.3,75.1,79.5,76.6,72.6,92,83,74,30.04,29.94,5,2,12,0.00
2014-9-10,87.4,81.8,76.0,78.1,75.4,72.9,91,81,72,29.99,29.91,5,2,14,0.00
2014-9-11,87.7,82.8,77.5,78.4,76.3,74.0,91,81,69,29.99,29.89,5,2,14,0.18
2014-9-12,81.4,81.3,81.2,77.8,77.7,77.6,89,89,89,29.95,29.94,3,2,13,0.00
2014-9-15,86.6,81.3,76.2,78.9,76.0,73.4,92,84,75,30.02,29.93,4,2,12,0.20
2014-9-16,86.8,81.2,73.4,77.8,75.0,70.7,92,82,72,30.00,29.90,5,2,15,0.00
2014-9-17,79.7,78.6,77.5,75.2,74.8,74.3,90,88,86,29.96,29.93,1,0,4,0.00
2014-9-24,86.7,81.4,75.8,79.4,76.7,73.8,94,86,76,30.01,29.93,4,2,15,0.53
2014-9-25,85.8,78.8,74.7,78.1,75.0,72.9,94,88,76,29.97,29.86,6,2,24,1.43
2014-9-26,75.3,74.1,73.5,73.5,72.2,71.4,94,94,93,29.88,29.84,2,1,5,0.01
2014-10-11,91.4,82.1,74.1,78.1,74.9,71.9,93,80,61,29.98,29.85,7,2,16,0.01
2014-10-12,87.8,82.2,74.8,78.9,76.0,71.7,91,82,74,29.99,29.90,4,2,14,0.02
2014-10-13,88.2,82.3,76.0,78.7,76.0,72.7,91,82,72,29.95,29.85,6,3,18,0.38
2014-10-14,85.0,78.1,74.3,76.7,74.4,72.5,95,89,72,29.92,29.81,7,3,14,0.49
2014-10-15,91.3,82.2,74.1,77.6,74.5,72.3,95,79,58,29.97,29.86,7,3,16,0.01
2014-10-16,88.1,81.5,74.2,80.4,75.8,71.7,93,83,76,29.96,29.84,4,1,13,0.00
2014-10-17,88.3,81.4,73.5,78.3,75.1,70.4,91,82,71,29.95,29.85,3,1,11,0.00
2014-10-18,78.1,76.8,75.8,74.6,73.4,72.4,90,89,87,29.92,29.89,1,1,5,0.00
2014-10-22,87.7,81.6,74.0,78.0,74.9,70.6,90,80,70,29.97,29.86,4,2,13,0.00
2014-10-23,88.0,80.1,74.4,78.7,74.8,71.6,92,84,73,29.94,29.89,5,2,13,0.04
2014-10-29,87.8,83.0,78.1,78.5,76.7,74.9,91,82,72,29.93,29.82,5,3,16,0.43
2014-10-30,85.9,80.3,76.2,78.9,76.2,74.7,95,88,75,29.84,29.74,4,2,13,0.74
2014-10-31,86.3,79.6,75.4,79.6,75.9,73.6,94,89,77,29.92,29.78,6,1,18,0.55
2014-11-1,88.5,81.4,73.7,80.2,76.3,71.9,95,85,74,29.99,29.88,4,2,14,0.01
2014-11-2,88.0,81.2,76.7,79.8,76.9,74.5,93,87,75,30.02,29.92,3,1,11,0.42
2014-11-3,86.1,79.4,73.1,78.7,75.2,71.6,95,88,74,29.98,29.87,6,2,21,1.21
2014-11-4,82.9,77.0,72.8,76.6,73.4,70.3,94,89,78,29.95,29.83,6,2,15,0.83
2014-11-5,79.9,74.5,72.1,73.0,71.1,69.3,94,89,77,29.96,29.82,6,1,16,0.17
2014-11-6,86.8,78.8,72.0,78.8,74.1,69.9,95,86,73,29.97,29.89,5,2,15,0.24
2014-11-7,77.9,73.7,70.1,75.1,71.5,68.6,96,93,82,30.01,29.84,10,4,21,4.71
2014-11-8,77.3,76.3,73.5,72.1,71.4,70.4,90,85,82,29.85,29.83,5,4,14,0.00
2014-11-12,86.8,79.7,72.4,77.1,74.0,69.7,92,83,70,29.92,29.84,4,2,13,0.00
2014-11-13,85.5,78.8,70.7,75.7,72.6,67.0,90,82,70,29.95,29.85,3,1,9,0.00
2014-12-15,81.1,76.1,71.5,74.7,72.3,69.7,94,88,81,29.98,29.85,4,1,14,0.38
2014-12-16,78.5,75.2,72.4,73.9,72.3,70.6,95,91,83,30.06,29.93,6,2,17,3.30